createdAt,value
2022-12-26T00:03:01.660Z,62.09
2022-12-26T00:06:13.015Z,62.07
2022-12-26T00:09:21.740Z,61.91
2022-12-26T00:12:27.604Z,62.57
2022-12-26T00:15:31.137Z,62.17
2022-12-26T00:19:06.751Z,62.83
2022-12-26T00:22:13.144Z,63.15
2022-12-26T00:25:17.146Z,64.10
2022-12-26T00:28:22.192Z,65.45
2022-12-26T00:31:28.102Z,65.33
2022-12-26T00:34:35.363Z,64.66
2022-12-26T00:37:39.738Z,64.55
2022-12-26T00:40:45.106Z,64.73
2022-12-26T00:43:51.756Z,64.05
2022-12-26T00:46:55.705Z,63.64
2022-12-26T00:50:13.864Z,62.54
2022-12-26T00:53:19.454Z,62.23
2022-12-26T00:56:23.581Z,62.86
2022-12-26T00:59:29.542Z,63.31
2022-12-26T01:02:40.883Z,63.01
2022-12-26T01:05:46.073Z,62.04
2022-12-26T01:08:50.229Z,61.85
2022-12-26T01:11:54.226Z,61.60
2022-12-26T01:15:00.439Z,62.09
2022-12-26T01:18:04.654Z,62.26
2022-12-26T01:21:11.969Z,62.12
2022-12-26T01:24:15.580Z,61.41
2022-12-26T01:27:21.383Z,62.21
2022-12-26T01:30:26.689Z,62.54
2022-12-26T01:33:31.527Z,62.27
2022-12-26T01:36:35.180Z,62.13
2022-12-26T01:39:40.382Z,62.20
2022-12-26T01:42:45.165Z,62.08
2022-12-26T01:45:56.692Z,61.53
2022-12-26T01:49:03.827Z,61.42
2022-12-26T01:52:15.056Z,61.14
2022-12-26T01:55:21.501Z,61.03
2022-12-26T01:58:31.909Z,60.43
2022-12-26T02:01:41.295Z,60.35
2022-12-26T02:05:07.828Z,60.39
2022-12-26T02:08:15.771Z,62.50
2022-12-26T02:11:24.059Z,62.61
2022-12-26T02:14:31.503Z,61.69
2022-12-26T02:17:38.340Z,62.13
2022-12-26T02:20:49.645Z,62.54
2022-12-26T02:24:26.448Z,62.62
2022-12-26T02:27:47.324Z,65.75
2022-12-26T02:30:56.093Z,65.63
2022-12-26T02:34:10.745Z,64.70
2022-12-26T02:37:27.029Z,64.82
2022-12-26T02:40:51.273Z,64.42
2022-12-26T02:44:24.179Z,64.41
2022-12-26T02:47:38.054Z,64.73
2022-12-26T02:51:17.682Z,65.24
2022-12-26T02:54:45.692Z,63.63
2022-12-26T02:58:17.735Z,62.64
2022-12-26T03:01:46.136Z,62.64
2022-12-26T03:05:12.108Z,63.46
2022-12-26T03:08:42.243Z,62.96
2022-12-26T03:12:22.203Z,62.47
2022-12-26T03:15:50.978Z,61.54
2022-12-26T03:19:01.320Z,61.26
2022-12-26T03:22:28.313Z,62.25
2022-12-26T03:25:58.631Z,61.27
2022-12-26T03:29:19.039Z,60.98
2022-12-26T03:32:23.097Z,60.69
2022-12-26T03:35:34.622Z,60.61
2022-12-26T03:38:56.116Z,60.52
2022-12-26T03:42:27.949Z,60.96
2022-12-26T03:46:09.656Z,60.43
2022-12-26T03:49:38.229Z,61.17
2022-12-26T03:53:08.592Z,60.69
2022-12-26T03:56:39.034Z,60.94
2022-12-26T04:00:09.451Z,59.76
2022-12-26T04:03:36.603Z,60.04
2022-12-26T04:07:09.194Z,59.65
2022-12-26T04:10:50.468Z,59.76
2022-12-26T04:14:24.802Z,60.21
2022-12-26T04:17:52.307Z,60.39
2022-12-26T04:21:30.194Z,59.85
2022-12-26T04:29:20.571Z,60.96
2022-12-26T04:32:50.392Z,60.65
2022-12-26T04:36:18.348Z,60.93
2022-12-26T04:40:10.369Z,60.05
2022-12-26T04:43:49.049Z,60.92
2022-12-26T04:46:58.224Z,61.70
2022-12-26T04:50:12.299Z,61.70
2022-12-26T04:53:16.315Z,62.71
2022-12-26T04:56:20.444Z,62.21
2022-12-26T04:59:24.601Z,61.50
2022-12-26T05:02:47.508Z,61.89
2022-12-26T05:06:10.990Z,60.44
2022-12-26T05:09:36.691Z,60.94
2022-12-26T05:12:40.999Z,61.12
2022-12-26T05:15:58.746Z,60.74
2022-12-26T05:19:29.559Z,61.13
2022-12-26T05:22:52.936Z,62.53
2022-12-26T05:26:14.466Z,61.80
2022-12-26T05:29:18.493Z,62.32
2022-12-26T05:32:39.229Z,60.93
2022-12-26T05:35:45.391Z,60.00
2022-12-26T05:38:49.434Z,60.42
2022-12-26T05:41:53.991Z,59.67
2022-12-26T05:45:16.323Z,60.19
2022-12-26T05:48:20.607Z,60.56
2022-12-26T05:51:26.681Z,60.63
2022-12-26T05:54:31.643Z,60.04
2022-12-26T05:57:35.059Z,60.79
2022-12-26T06:00:39.069Z,60.71
2022-12-26T06:03:44.504Z,60.46
2022-12-26T06:06:50.495Z,61.03
2022-12-26T06:09:54.264Z,60.78
2022-12-26T06:13:01.656Z,60.09
2022-12-26T06:16:10.086Z,60.37
2022-12-26T06:19:14.222Z,59.58
2022-12-26T06:22:19.397Z,60.28
2022-12-26T06:25:26.834Z,59.85
2022-12-26T06:28:30.965Z,60.45
2022-12-26T06:31:35.661Z,61.18
2022-12-26T06:34:39.546Z,61.35
2022-12-26T06:37:45.727Z,61.11
2022-12-26T06:40:49.817Z,61.06
2022-12-26T06:43:54.292Z,60.46
2022-12-26T06:46:57.846Z,60.70
2022-12-26T06:50:03.193Z,61.07
2022-12-26T06:53:37.678Z,62.07
2022-12-26T06:56:41.582Z,62.40
2022-12-26T06:59:47.852Z,61.59
2022-12-26T07:03:18.218Z,61.69
2022-12-26T07:06:26.177Z,61.64
2022-12-26T07:09:34.062Z,62.26
2022-12-26T07:12:40.844Z,61.95
2022-12-26T07:15:45.055Z,60.99
2022-12-26T07:18:48.852Z,61.99
2022-12-26T07:21:56.965Z,62.11
2022-12-26T07:29:47.751Z,62.94
2022-12-26T07:37:58.612Z,63.72
2022-12-26T07:41:23.653Z,63.38
2022-12-26T07:44:28.810Z,64.06
2022-12-26T07:47:34.259Z,64.83
2022-12-26T07:51:04.138Z,65.79
2022-12-26T07:54:11.607Z,65.51
2022-12-26T08:01:56.723Z,66.82
2022-12-26T08:05:03.411Z,66.70
2022-12-26T08:08:35.293Z,67.58
2022-12-26T08:11:39.720Z,68.30
2022-12-26T08:14:45.628Z,69.87
2022-12-26T08:17:55.035Z,68.45
2022-12-26T08:21:01.640Z,68.64
2022-12-26T08:28:56.206Z,70.41
2022-12-26T08:32:03.248Z,69.75
2022-12-26T08:35:11.767Z,70.48
2022-12-26T08:38:18.974Z,69.37
2022-12-26T08:41:23.767Z,70.22
2022-12-26T08:44:29.457Z,70.02
2022-12-26T08:48:55.244Z,70.29
2022-12-26T08:52:01.047Z,70.54
2022-12-26T09:00:30.156Z,70.19
2022-12-26T09:03:37.152Z,69.43
2022-12-26T09:06:42.915Z,69.67
2022-12-26T09:09:50.327Z,69.96
2022-12-26T09:13:03.680Z,69.35
2022-12-26T09:16:11.090Z,69.05
2022-12-26T09:19:18.535Z,68.34
2022-12-26T09:22:39.395Z,68.55
2022-12-26T09:25:44.391Z,69.05
2022-12-26T09:28:51.942Z,68.75
2022-12-26T09:32:04.203Z,68.86
2022-12-26T09:35:09.037Z,68.65
2022-12-26T09:38:13.970Z,69.04
2022-12-26T09:41:47.339Z,68.48
2022-12-26T09:45:02.049Z,68.76
2022-12-26T09:48:37.588Z,68.44
2022-12-26T09:51:46.343Z,68.87
2022-12-26T09:54:59.185Z,68.21
2022-12-26T09:58:34.237Z,67.99
2022-12-26T10:01:38.740Z,67.58
2022-12-26T10:04:46.061Z,67.01
2022-12-26T10:07:59.933Z,66.72
2022-12-26T10:11:16.279Z,66.86
2022-12-26T10:14:33.748Z,66.81
2022-12-26T10:17:44.076Z,67.27
2022-12-26T10:21:05.041Z,66.67
2022-12-26T10:24:16.014Z,66.70
2022-12-26T10:27:21.650Z,66.90
2022-12-26T10:30:32.122Z,66.79
2022-12-26T10:33:43.464Z,66.72
2022-12-26T10:36:53.160Z,66.51
2022-12-26T10:40:00.683Z,66.38
2022-12-26T10:43:22.968Z,66.80
2022-12-26T10:46:54.153Z,66.18
2022-12-26T10:50:00.280Z,66.23
2022-12-26T10:53:14.349Z,66.28
2022-12-26T10:56:22.177Z,66.42
2022-12-26T10:59:38.762Z,65.71
2022-12-26T11:03:56.995Z,65.92
2022-12-26T11:07:01.491Z,65.41
2022-12-26T11:10:18.578Z,64.99
2022-12-26T11:13:26.845Z,65.06
2022-12-26T11:16:36.227Z,65.33
2022-12-26T11:19:42.146Z,64.89
2022-12-26T11:22:50.088Z,65.05
2022-12-26T11:25:58.595Z,65.21
2022-12-26T11:29:31.769Z,65.09
2022-12-26T11:32:38.678Z,64.77
2022-12-26T11:35:54.724Z,64.33
2022-12-26T11:39:06.705Z,64.15
2022-12-26T11:42:20.379Z,64.36
2022-12-26T11:45:27.678Z,64.36
2022-12-26T11:48:34.059Z,64.58
2022-12-26T11:51:44.618Z,64.39
2022-12-26T11:54:50.978Z,64.56
2022-12-26T11:58:06.283Z,64.47
2022-12-26T12:01:18.331Z,64.30
2022-12-26T12:04:23.073Z,64.49
2022-12-26T12:07:42.406Z,64.45
2022-12-26T12:10:55.469Z,64.30
2022-12-26T12:14:40.715Z,64.44
2022-12-26T12:17:55.692Z,64.20
2022-12-26T12:21:11.464Z,64.00
2022-12-26T12:24:29.086Z,63.89
2022-12-26T12:27:38.403Z,64.08
2022-12-26T12:30:50.471Z,63.99
2022-12-26T12:34:03.958Z,63.88
2022-12-26T12:37:26.345Z,63.65
2022-12-26T12:40:39.128Z,64.00
2022-12-26T12:43:49.973Z,63.68
2022-12-26T12:47:07.319Z,63.55
2022-12-26T12:50:23.565Z,63.59
2022-12-26T12:53:50.924Z,63.90
2022-12-26T12:57:04.841Z,63.55
2022-12-26T13:00:19.526Z,63.82
2022-12-26T13:03:42.675Z,64.03
2022-12-26T13:06:58.494Z,63.83
2022-12-26T13:10:05.693Z,63.77
2022-12-26T13:13:21.460Z,63.98
2022-12-26T13:16:29.780Z,63.73
2022-12-26T13:19:51.715Z,63.46
2022-12-26T13:23:19.470Z,63.47
2022-12-26T13:26:28.356Z,63.36
2022-12-26T13:29:42.038Z,63.38
2022-12-26T13:32:47.372Z,63.51
2022-12-26T13:35:56.862Z,63.09
2022-12-26T13:39:38.700Z,63.02
2022-12-26T13:43:04.806Z,62.74
2022-12-26T13:46:54.711Z,62.99
2022-12-26T13:49:58.301Z,63.18
2022-12-26T13:53:05.245Z,63.12
2022-12-26T13:56:40.971Z,63.39
2022-12-26T14:00:08.487Z,63.35
2022-12-26T14:03:47.538Z,63.44
2022-12-26T14:07:14.687Z,63.47
2022-12-26T14:10:26.349Z,63.58
2022-12-26T14:13:49.739Z,63.82
2022-12-26T14:17:00.301Z,63.93
2022-12-26T14:20:23.381Z,64.14
2022-12-26T14:23:45.825Z,64.19
2022-12-26T14:26:58.204Z,63.97
2022-12-26T14:30:21.447Z,64.11
2022-12-26T14:33:34.257Z,64.41
2022-12-26T14:36:48.002Z,64.33
2022-12-26T14:40:08.151Z,64.55
2022-12-26T14:43:34.768Z,64.67
2022-12-26T14:47:01.713Z,65.01
2022-12-26T14:50:49.722Z,65.27
2022-12-26T14:54:36.013Z,65.36
2022-12-26T14:57:48.486Z,64.82
2022-12-26T15:01:01.144Z,65.22
2022-12-26T15:04:14.264Z,65.15
2022-12-26T15:07:59.239Z,65.08
2022-12-26T15:11:42.652Z,65.52
2022-12-26T15:15:59.767Z,65.27
2022-12-26T15:19:38.922Z,65.16
2022-12-26T15:23:28.688Z,65.42
2022-12-26T15:26:55.388Z,65.24
2022-12-26T15:30:25.745Z,65.12
2022-12-26T15:33:38.977Z,65.18
2022-12-26T15:36:50.905Z,65.09
2022-12-26T15:40:05.977Z,65.29
2022-12-26T15:43:28.531Z,65.33
2022-12-26T15:46:37.133Z,65.08
2022-12-26T15:49:54.528Z,65.19
2022-12-26T15:53:12.294Z,64.59
2022-12-26T15:56:49.988Z,64.62
2022-12-26T16:00:07.208Z,63.66
2022-12-26T16:03:27.916Z,64.51
2022-12-26T16:06:58.505Z,65.25
2022-12-26T16:10:30.879Z,64.24
2022-12-26T16:13:35.549Z,64.90
2022-12-26T16:16:40.784Z,64.55
2022-12-26T16:19:48.532Z,65.50
2022-12-26T16:22:52.882Z,64.75
2022-12-26T16:26:02.662Z,65.64
2022-12-26T16:29:07.747Z,64.85
2022-12-26T16:32:19.604Z,65.80
2022-12-26T16:35:26.688Z,66.10
2022-12-26T16:38:33.964Z,65.88
2022-12-26T16:41:59.640Z,64.83
2022-12-26T16:45:03.680Z,65.61
2022-12-26T16:48:10.041Z,64.36
2022-12-26T16:51:39.630Z,65.41
2022-12-26T16:54:43.900Z,64.44
2022-12-26T16:57:49.826Z,64.79
2022-12-26T17:01:06.056Z,64.67
2022-12-26T17:04:20.169Z,64.63
2022-12-26T17:07:25.030Z,64.64
2022-12-26T17:10:31.871Z,64.71
2022-12-26T17:13:39.649Z,64.00
2022-12-26T17:16:43.368Z,64.60
2022-12-26T17:19:53.734Z,64.55
2022-12-26T17:22:59.056Z,64.94
2022-12-26T17:26:25.580Z,64.19
2022-12-26T17:30:00.775Z,64.43
2022-12-26T17:33:09.233Z,64.20
2022-12-26T17:39:41.936Z,64.54
2022-12-26T17:42:49.217Z,64.08
2022-12-26T17:45:54.913Z,64.22
2022-12-26T17:48:59.069Z,63.48
2022-12-26T17:52:03.423Z,63.79
2022-12-26T17:55:15.673Z,63.76
2022-12-26T17:58:23.783Z,64.12
2022-12-26T18:01:29.354Z,64.36
2022-12-26T18:04:33.303Z,64.12
2022-12-26T18:07:37.051Z,64.06
2022-12-26T18:10:40.860Z,64.17
2022-12-26T18:13:44.841Z,64.01
2022-12-26T18:16:52.829Z,64.25
2022-12-26T18:19:57.993Z,63.73
2022-12-26T18:23:02.620Z,64.42
2022-12-26T18:26:09.515Z,64.13
2022-12-26T18:29:13.741Z,63.59
2022-12-26T18:32:26.401Z,63.18
2022-12-26T18:35:30.761Z,63.22
2022-12-26T18:38:34.322Z,63.85
2022-12-26T18:41:38.585Z,64.44
2022-12-26T18:44:42.557Z,63.81
2022-12-26T18:47:48.952Z,63.84
2022-12-26T18:50:52.981Z,62.79
2022-12-26T18:53:57.113Z,63.41
2022-12-26T18:57:00.815Z,63.33
2022-12-26T19:00:08.688Z,64.68
2022-12-26T19:03:17.984Z,64.82
2022-12-26T19:06:25.103Z,64.76
2022-12-26T19:09:28.724Z,63.24
2022-12-26T19:12:33.128Z,63.55
2022-12-26T19:15:37.424Z,64.00
2022-12-26T19:18:42.948Z,63.88
2022-12-26T19:21:47.553Z,63.46
2022-12-26T19:24:51.680Z,62.67
2022-12-26T19:27:55.941Z,63.18
2022-12-26T19:31:00.282Z,62.10
2022-12-26T19:34:05.480Z,62.50
2022-12-26T19:37:09.684Z,63.41
2022-12-26T19:40:18.351Z,62.31
2022-12-26T19:43:25.294Z,62.36
2022-12-26T19:46:29.920Z,62.91
2022-12-26T19:49:36.482Z,63.84
2022-12-26T19:52:43.328Z,62.65
2022-12-26T19:55:47.884Z,62.51
2022-12-26T19:58:56.415Z,61.80
2022-12-26T20:02:01.308Z,62.51
2022-12-26T20:05:07.774Z,61.85
2022-12-26T20:08:13.035Z,61.58
2022-12-26T20:11:19.531Z,61.32
2022-12-26T20:14:26.077Z,61.72
2022-12-26T20:17:29.995Z,62.37
2022-12-26T20:20:35.461Z,62.85
2022-12-26T20:23:39.317Z,61.48
2022-12-26T20:26:44.334Z,61.22
2022-12-26T20:29:48.456Z,61.19
2022-12-26T20:32:53.155Z,62.07
2022-12-26T20:36:06.150Z,63.24
2022-12-26T20:39:14.895Z,62.63
2022-12-26T20:42:19.779Z,62.56
2022-12-26T20:45:24.919Z,62.48
2022-12-26T20:48:31.599Z,62.57
2022-12-26T20:51:38.448Z,62.50
2022-12-26T20:54:43.105Z,62.53
2022-12-26T20:57:48.372Z,62.15
2022-12-26T21:00:57.451Z,61.08
2022-12-26T21:04:01.874Z,60.93
2022-12-26T21:07:07.375Z,61.20
2022-12-26T21:10:15.063Z,61.04
2022-12-26T21:13:19.615Z,61.71
2022-12-26T21:16:30.372Z,62.10
2022-12-26T21:19:34.136Z,61.76
2022-12-26T21:22:39.351Z,62.23
2022-12-26T21:25:47.360Z,62.59
2022-12-26T21:28:56.232Z,61.85
2022-12-26T21:32:04.578Z,61.04
2022-12-26T21:35:09.659Z,61.57
2022-12-26T21:38:15.423Z,62.06
2022-12-26T21:41:20.284Z,62.78
2022-12-26T21:44:24.265Z,62.26
2022-12-26T21:47:29.750Z,61.60
2022-12-26T21:50:33.650Z,61.33
2022-12-26T21:53:39.291Z,61.24
2022-12-26T21:56:42.933Z,61.51
2022-12-26T22:00:42.175Z,62.84
2022-12-26T22:04:02.957Z,62.13
2022-12-26T22:07:08.941Z,62.78
2022-12-26T22:10:35.844Z,62.40
2022-12-26T22:13:40.583Z,61.22
2022-12-26T22:16:44.695Z,62.24
2022-12-26T22:19:48.757Z,62.40
2022-12-26T22:22:53.400Z,62.08
2022-12-26T22:25:59.057Z,63.49
2022-12-26T22:29:02.544Z,62.06
2022-12-26T22:32:07.250Z,63.06
2022-12-26T22:35:18.165Z,62.69
2022-12-26T22:38:23.671Z,61.99
2022-12-26T22:41:37.706Z,61.41
2022-12-26T22:44:41.804Z,61.14
2022-12-26T22:47:46.100Z,60.81
2022-12-26T22:50:53.572Z,62.05
2022-12-26T22:53:58.197Z,64.19
2022-12-26T22:57:03.384Z,62.83
2022-12-26T23:00:11.196Z,63.69
2022-12-26T23:03:16.828Z,62.56
2022-12-26T23:06:22.896Z,62.05
2022-12-26T23:09:29.329Z,62.60
2022-12-26T23:12:45.361Z,61.66
2022-12-26T23:15:56.994Z,62.03
2022-12-26T23:19:21.788Z,61.84
2022-12-26T23:22:30.505Z,61.74
2022-12-26T23:25:36.784Z,61.25
2022-12-26T23:29:02.370Z,62.24
2022-12-26T23:32:08.322Z,62.45
2022-12-26T23:35:13.695Z,62.53
2022-12-26T23:38:18.271Z,62.17
2022-12-26T23:41:29.861Z,63.17
2022-12-26T23:44:35.714Z,62.50
2022-12-26T23:47:41.551Z,62.04
2022-12-26T23:50:46.860Z,61.31
2022-12-26T23:53:51.077Z,60.53
2022-12-26T23:56:54.933Z,60.99
